Time;durP1;ratioP1;P1;durP2;ratioP2;P2;SDS_P1;SDS_P2;PMS_P1;PMS_P2;Temp;Humidity;BMP_temperature;BMP_pressure;BME280_temperature;BME280_humidity;BME280_pressure;Samples;Min_cycle;Max_cycle;Signal;HPM_P1;HPM_P2
2022/12/27 00:01:29;;;;;;;5.65;4.32;;;;;;;-2.22;100.00;98763.03;5159843;27;20058;-62
2022/12/27 00:03:55;;;;;;;6.03;4.15;;;;;;;-2.19;100.00;98755.19;5160190;27;20404;-61
2022/12/27 00:06:23;;;;;;;6.55;4.70;;;;;;;-1.82;100.00;98756.25;5160027;27;20057;-61
2022/12/27 00:08:50;;;;;;;7.10;4.15;;;;;;;-2.14;100.00;98757.78;5159971;27;20108;-62
2022/12/27 00:11:18;;;;;;;7.65;4.57;;;;;;;-1.96;100.00;98741.97;5159736;27;20051;-61
2022/12/27 00:13:45;;;;;;;5.95;4.05;;;;;;;-1.68;100.00;98746.34;5160127;27;20445;-61
2022/12/27 00:16:14;;;;;;;7.13;5.00;;;;;;;-1.99;100.00;98775.59;5159694;27;20050;-62
2022/12/27 00:18:42;;;;;;;6.85;4.57;;;;;;;-1.94;100.00;98775.50;5160032;27;20054;-61
2022/12/27 00:21:10;;;;;;;6.93;4.60;;;;;;;-1.73;100.00;98767.16;5159521;27;20086;-61
2022/12/27 00:23:38;;;;;;;7.40;4.53;;;;;;;-1.71;100.00;98768.41;5159523;27;20083;-62
2022/12/27 00:26:06;;;;;;;6.47;4.78;;;;;;;-1.73;100.00;98767.16;5159841;27;20058;-62
2022/12/27 00:28:34;;;;;;;9.20;5.05;;;;;;;-1.94;100.00;98774.69;5159639;27;20050;-62
2022/12/27 00:31:01;;;;;;;9.15;5.53;;;;;;;-1.70;100.00;98764.66;5159839;27;20057;-62
2022/12/27 00:33:30;;;;;;;8.23;6.20;;;;;;;-2.04;100.00;98774.84;5159538;27;20042;-62
2022/12/27 00:35:58;;;;;;;8.80;5.82;;;;;;;-1.82;100.00;98763.53;5159658;27;20047;-61
2022/12/27 00:38:24;;;;;;;11.05;5.70;;;;;;;-1.53;100.00;98745.28;5159344;27;20438;-62
2022/12/27 00:40:50;;;;;;;8.75;5.25;;;;;;;-1.92;100.00;98751.84;5159696;27;20457;-62
2022/12/27 00:43:17;;;;;;;7.85;5.00;;;;;;;-1.70;100.00;98739.66;5159281;27;20047;-61
2022/12/27 00:45:44;;;;;;;8.50;5.22;;;;;;;-1.59;100.00;98738.41;5159664;27;20053;-62
2022/12/27 00:48:10;;;;;;;10.10;5.40;;;;;;;-1.79;100.00;98741.44;5159068;27;20111;-61
2022/12/27 00:50:39;;;;;;;10.90;5.15;;;;;;;-1.54;100.00;98732.13;5159018;27;20408;-62
2022/12/27 00:53:05;;;;;;;13.57;6.65;;;;;;;-1.96;100.00;98736.59;5159114;27;20199;-61
2022/12/27 00:55:31;;;;;;;15.10;7.70;;;;;;;-1.44;100.00;98716.63;5159276;27;20078;-61
2022/12/27 00:57:58;;;;;;;20.98;10.18;;;;;;;-1.64;100.00;98725.03;5159377;27;20093;-62
2022/12/27 01:00:24;;;;;;;33.10;11.38;;;;;;;-1.55;100.00;98728.66;5158959;27;20055;-61
2022/12/27 01:02:50;;;;;;;24.90;10.60;;;;;;;-1.13;100.00;98731.38;5158292;27;20431;-62
2022/12/27 01:05:17;;;;;;;28.63;10.18;;;;;;;-0.92;100.00;98732.59;5159032;27;20378;-61
2022/12/27 01:07:44;;;;;;;21.20;9.73;;;;;;;-1.22;100.00;98752.81;5159158;27;20050;-61
2022/12/27 01:10:10;;;;;;;17.17;7.78;;;;;;;-1.37;100.00;98755.75;5158810;27;20107;-61
2022/12/27 01:12:37;;;;;;;19.17;8.13;;;;;;;-1.44;100.00;98756.16;5159256;27;20062;-61
2022/12/27 01:15:03;;;;;;;11.55;6.15;;;;;;;-1.67;100.00;98755.19;5158675;27;20043;-61
2022/12/27 01:17:30;;;;;;;12.90;6.95;;;;;;;-1.60;100.00;98741.38;5159188;27;20089;-61
2022/12/27 01:19:56;;;;;;;12.05;5.50;;;;;;;-1.48;100.00;98729.06;5159155;27;20051;-62
2022/12/27 01:22:22;;;;;;;16.55;6.32;;;;;;;-1.37;100.00;98726.97;5158866;27;20074;-61
2022/12/27 01:24:49;;;;;;;12.55;6.53;;;;;;;-1.07;100.00;98719.44;5158673;27;20057;-62
2022/12/27 01:27:16;;;;;;;9.60;5.60;;;;;;;-1.15;100.00;98723.63;5158557;27;20168;-61
2022/12/27 01:29:42;;;;;;;13.88;5.47;;;;;;;-1.10;100.00;98728.09;5158583;27;20086;-62
2022/12/27 01:32:08;;;;;;;9.48;5.95;;;;;;;-1.07;100.00;98728.31;5158552;27;20042;-63
2022/12/27 01:34:35;;;;;;;12.20;5.38;;;;;;;-1.21;100.00;98747.13;5158720;27;20051;-61
2022/12/27 01:37:01;;;;;;;6.97;5.35;;;;;;;-0.52;100.00;98735.56;5158438;27;20191;-62
2022/12/27 01:39:27;;;;;;;10.23;6.15;;;;;;;-1.15;100.00;98769.34;5158755;27;20079;-63
2022/12/27 01:44:52;;;;;;;7.80;4.45;;;;;;;-1.35;100.00;98750.91;5158410;27;20102;-62
2022/12/27 01:47:25;;;;;;;16.52;6.00;;;;;;;-0.79;100.00;98741.78;5158624;27;20141;-62
2022/12/27 01:49:58;;;;;;;19.17;5.87;;;;;;;-1.11;100.00;98761.50;5158163;27;20404;-62
2022/12/27 01:52:28;;;;;;;8.40;4.88;;;;;;;-1.15;100.00;98757.81;5158455;27;20052;-62
2022/12/27 01:54:59;;;;;;;10.40;5.78;;;;;;;-1.12;100.00;98731.09;5158232;27;20061;-62
2022/12/27 01:57:26;;;;;;;11.77;6.38;;;;;;;-0.99;100.00;98724.13;5158447;27;20047;-62
2022/12/27 01:59:53;;;;;;;12.75;5.85;;;;;;;-0.60;100.00;98712.00;5158016;27;20090;-61
2022/12/27 02:02:21;;;;;;;9.02;5.90;;;;;;;-1.04;100.00;98724.22;5157883;27;20047;-62
2022/12/27 02:04:48;;;;;;;13.35;6.70;;;;;;;-0.95;100.00;98725.13;5157939;27;20415;-63
2022/12/27 02:07:14;;;;;;;11.73;5.90;;;;;;;-1.03;100.00;98721.25;5157923;27;20050;-62
2022/12/27 02:09:46;;;;;;;11.02;6.55;;;;;;;-0.92;100.00;98712.97;5158218;27;20374;-62
2022/12/27 02:12:14;;;;;;;12.82;6.35;;;;;;;-0.44;100.00;98707.91;5158083;27;20046;-62
2022/12/27 02:14:43;;;;;;;9.23;5.85;;;;;;;-0.50;100.00;98739.53;5159429;27;20061;-63
2022/12/27 02:17:14;;;;;;;12.48;6.75;;;;;;;-0.13;100.00;98736.88;5161611;27;20057;-62
2022/12/27 02:19:52;;;;;;;12.93;6.85;;;;;;;-0.07;100.00;98784.13;5161897;27;20059;-62
2022/12/27 02:26:16;;;;;;;25.00;6.50;;;;;;;-0.91;100.00;98798.78;5118929;28;20376;-62
2022/12/27 02:29:23;;;;;;;10.60;6.00;;;;;;;-0.42;100.00;98786.50;5118671;28;20142;-62
2022/12/27 02:31:58;;;;;;;10.20;5.78;;;;;;;-0.44;100.00;98799.47;5149394;27;20137;-62
2022/12/27 02:34:28;;;;;;;39.33;7.35;;;;;;;-1.10;100.00;98806.94;5161290;27;20054;-62
2022/12/27 02:37:00;;;;;;;10.25;6.60;;;;;;;-0.32;100.00;98774.72;5161621;27;20042;-63
2022/12/27 02:39:28;;;;;;;11.85;6.07;;;;;;;-0.09;100.00;98772.88;5161439;27;20062;-62
2022/12/27 02:53:07;;;;;;;16.15;7.82;;;;;;;-0.19;100.00;98733.47;5161215;27;20062;-63
2022/12/27 02:58:56;;;;;;;32.05;7.60;;;;;;;-0.79;100.00;98774.06;5161053;27;20438;-62
2022/12/27 03:04:42;;;;;;;27.55;8.68;;;;;;;-0.92;100.00;98707.59;5139392;27;20383;-62
2022/12/27 03:07:21;;;;;;;29.80;7.32;;;;;;;-0.75;100.00;98680.84;5160863;27;20130;-62
2022/12/27 03:15:54;;;;;;;30.45;8.13;;;;;;;-0.98;100.00;98653.88;5160832;27;19934;-62
2022/12/27 03:18:31;;;;;;;32.72;9.55;;;;;;;-0.66;100.00;98632.50;5160941;27;20138;-62
2022/12/27 03:26:35;;;;;;;30.70;10.07;;;;;;;-0.86;100.00;98604.94;5160416;27;20098;-62
2022/12/27 03:34:43;;;;;;;45.30;9.80;;;;;;;-0.11;100.00;98637.63;5160542;27;20381;-62
2022/12/27 03:40:06;;;;;;;35.28;10.15;;;;;;;0.11;100.00;98650.31;5160636;27;20437;-62
2022/12/27 03:46:32;;;;;;;56.35;10.10;;;;;;;0.19;100.00;98719.66;5160679;27;20057;-62
2022/12/27 03:48:13;;;;;;;58.35;11.15;;;;;;;-0.11;100.00;98746.22;5160102;27;20046;-62
2022/12/27 03:50:45;;;;;;;40.00;11.45;;;;;;;0.11;100.00;98741.97;5160033;27;20137;-62
2022/12/27 03:53:20;;;;;;;23.52;9.27;;;;;;;-0.19;100.00;98765.00;5160149;27;20058;-62
2022/12/27 03:55:47;;;;;;;52.53;11.63;;;;;;;-0.04;100.00;98740.41;5160045;27;20145;-62
2022/12/27 03:58:13;;;;;;;33.33;9.65;;;;;;;-0.21;100.00;98732.97;5160161;27;20051;-62
2022/12/27 04:00:39;;;;;;;42.20;11.32;;;;;;;0.27;100.00;98701.91;5160021;27;20548;-62
2022/12/27 04:03:06;;;;;;;32.63;10.20;;;;;;;0.40;100.00;98709.13;5160217;27;20054;-62
2022/12/27 04:05:32;;;;;;;24.58;10.07;;;;;;;0.24;100.00;98730.31;5159940;27;20133;-63
2022/12/27 04:35:23;;;;;;;44.03;17.27;;;;;;;0.20;100.00;98692.41;5160013;27;20049;-63
2022/12/27 04:37:49;;;;;;;53.50;17.40;;;;;;;0.41;100.00;98689.19;5158325;27;20069;-62
2022/12/27 04:56:56;;;;;;;43.47;11.32;;;;;;;0.78;100.00;98720.28;5095854;28;20131;-62
2022/12/27 05:02:07;;;;;;;39.95;11.45;;;;;;;0.71;100.00;98738.84;5159391;27;20046;-62
2022/12/27 05:04:36;;;;;;;32.55;12.07;;;;;;;0.89;100.00;98729.69;5158803;27;20168;-62
2022/12/27 05:15:15;;;;;;;42.78;10.40;;;;;;;0.93;100.00;98724.47;5158770;27;20457;-63
2022/12/27 05:17:41;;;;;;;26.35;9.95;;;;;;;0.77;100.00;98718.72;5158592;27;20431;-63
2022/12/27 05:20:09;;;;;;;37.33;10.40;;;;;;;1.09;100.00;98708.66;5159078;27;20078;-62
2022/12/27 05:25:35;;;;;;;32.60;10.25;;;;;;;1.02;100.00;98746.91;5158578;27;20058;-63
2022/12/27 05:28:03;;;;;;;25.95;11.60;;;;;;;0.63;100.00;98747.66;5158467;27;20143;-63
2022/12/27 05:30:32;;;;;;;44.80;14.57;;;;;;;0.75;100.00;98723.63;5158422;27;20137;-62
2022/12/27 05:32:59;;;;;;;44.40;13.15;;;;;;;1.05;100.00;98705.00;5158532;27;20396;-63
2022/12/27 05:35:25;;;;;;;38.08;12.50;;;;;;;1.01;100.00;98717.53;5158244;27;20427;-63
2022/12/27 05:37:53;;;;;;;44.38;10.95;;;;;;;1.18;100.00;98728.38;5158684;27;20211;-63
2022/12/27 05:40:19;;;;;;;36.63;11.00;;;;;;;1.09;100.00;98738.34;5157975;27;20055;-63
2022/12/27 05:42:45;;;;;;;46.58;13.45;;;;;;;0.96;100.00;98733.84;5158537;27;20086;-62
2022/12/27 05:45:13;;;;;;;50.55;12.30;;;;;;;1.33;100.00;98725.25;5157965;27;20059;-62
2022/12/27 05:47:40;;;;;;;32.58;13.13;;;;;;;1.03;100.00;98739.59;5158219;27;20050;-63
2022/12/27 05:50:06;;;;;;;56.40;15.85;;;;;;;1.31;100.00;98730.16;5158134;27;20046;-63
2022/12/27 05:52:33;;;;;;;52.28;14.63;;;;;;;1.14;100.00;98741.72;5158148;27;20054;-61
2022/12/27 05:54:59;;;;;;;66.03;16.33;;;;;;;1.31;100.00;98729.38;5157979;27;20043;-63
2022/12/27 05:57:25;;;;;;;57.80;16.27;;;;;;;1.31;100.00;98738.28;5158135;27;20308;-62
2022/12/27 05:59:51;;;;;;;53.72;14.45;;;;;;;0.80;100.00;98763.97;5158032;27;20381;-62
2022/12/27 06:02:18;;;;;;;43.92;14.20;;;;;;;1.17;100.00;98734.91;5157774;27;20051;-62
2022/12/27 06:04:45;;;;;;;51.25;13.93;;;;;;;1.02;100.00;98735.31;5157893;27;20111;-62
2022/12/27 06:07:12;;;;;;;68.25;11.15;;;;;;;0.73;100.00;98738.50;5157713;27;20372;-62
2022/12/27 06:09:38;;;;;;;66.20;17.67;;;;;;;1.27;100.00;98701.41;5157732;27;20043;-61
2022/12/27 06:12:05;;;;;;;51.83;14.75;;;;;;;1.04;100.00;98706.13;5157687;27;20046;-62
2022/12/27 06:14:31;;;;;;;72.43;17.95;;;;;;;0.65;100.00;98688.81;5157552;27;20051;-62
2022/12/27 06:16:58;;;;;;;67.70;17.95;;;;;;;1.01;100.00;98648.16;5157665;27;20445;-62
2022/12/27 06:19:24;;;;;;;81.90;19.45;;;;;;;1.29;100.00;98642.47;5157696;27;20105;-60
2022/12/27 06:21:51;;;;;;;62.97;13.75;;;;;;;1.23;100.00;98652.63;5157739;27;20054;-63
2022/12/27 06:24:17;;;;;;;60.88;14.50;;;;;;;1.62;100.00;98653.59;5157497;27;20111;-62
2022/12/27 06:26:43;;;;;;;48.47;12.02;;;;;;;1.61;100.00;98679.06;5157684;27;20047;-62
2022/12/27 06:29:12;;;;;;;42.65;13.20;;;;;;;1.68;100.00;98695.56;5157092;27;20057;-61
2022/12/27 06:31:38;;;;;;;59.05;12.77;;;;;;;1.75;100.00;98722.91;5157635;27;20133;-64
2022/12/27 06:34:04;;;;;;;62.40;12.90;;;;;;;1.62;100.00;98738.16;5157379;27;20064;-66
2022/12/27 06:36:31;;;;;;;35.13;12.07;;;;;;;1.69;100.00;98755.81;5157746;27;20380;-63
2022/12/27 06:38:59;;;;;;;45.53;13.60;;;;;;;1.74;100.00;98764.56;5157208;27;20059;-63
2022/12/27 06:41:25;;;;;;;51.75;15.45;;;;;;;1.85;100.00;98783.97;5157566;27;20129;-63
2022/12/27 06:43:55;;;;;;;43.05;14.10;;;;;;;1.83;100.00;98803.22;5157202;27;20441;-63
2022/12/27 06:46:23;;;;;;;50.47;16.15;;;;;;;1.88;100.00;98813.09;5157490;27;20055;-64
2022/12/27 06:48:49;;;;;;;61.03;13.32;;;;;;;1.97;100.00;98834.75;5157398;27;20141;-63
2022/12/27 06:51:17;;;;;;;45.17;13.73;;;;;;;1.92;100.00;98842.97;5157333;27;20057;-66
2022/12/27 06:53:44;;;;;;;53.65;14.52;;;;;;;1.94;100.00;98849.69;5157236;27;20068;-66
2022/12/27 06:56:12;;;;;;;55.90;15.57;;;;;;;2.00;100.00;98856.53;5156821;27;20046;-64
2022/12/27 06:58:39;;;;;;;75.18;16.05;;;;;;;1.99;100.00;98871.13;5157256;27;20430;-63
2022/12/27 07:01:08;;;;;;;72.97;20.92;;;;;;;2.02;100.00;98867.00;5158715;27;20065;-62
2022/12/27 07:03:35;;;;;;;82.03;21.90;;;;;;;2.00;100.00;98878.16;5160837;27;20053;-64
2022/12/27 07:06:02;;;;;;;86.55;22.95;;;;;;;1.93;100.00;98880.50;5160532;27;20061;-63
2022/12/27 07:08:29;;;;;;;91.45;23.63;;;;;;;2.12;100.00;98886.44;5160977;27;20047;-63
2022/12/27 07:10:59;;;;;;;78.90;24.40;;;;;;;2.19;100.00;98899.50;5160601;27;20141;-62
2022/12/27 07:13:26;;;;;;;127.88;26.67;;;;;;;2.05;100.00;98901.53;5160421;27;20046;-62
2022/12/27 07:15:52;;;;;;;105.53;26.63;;;;;;;2.06;100.00;98890.41;5160525;27;20054;-64
2022/12/27 07:18:19;;;;;;;94.78;24.40;;;;;;;2.07;100.00;98883.91;5160071;27;20078;-63
2022/12/27 07:20:45;;;;;;;92.80;24.90;;;;;;;2.00;100.00;98880.03;5160158;27;20145;-64
2022/12/27 07:23:13;;;;;;;117.22;30.42;;;;;;;1.87;100.00;98873.69;5160268;27;20145;-64
2022/12/27 07:25:39;;;;;;;112.05;32.50;;;;;;;1.86;100.00;98878.25;5160737;27;20327;-64
2022/12/27 07:28:05;;;;;;;144.07;38.15;;;;;;;2.05;100.00;98872.59;5160243;27;20050;-64
2022/12/27 07:30:32;;;;;;;112.60;31.60;;;;;;;1.81;100.00;98875.72;5160393;27;20434;-64
2022/12/27 07:32:58;;;;;;;116.20;33.83;;;;;;;2.05;100.00;98874.50;5159922;27;20110;-64
2022/12/27 07:35:25;;;;;;;121.95;32.80;;;;;;;2.05;100.00;98885.31;5160461;27;20054;-63
2022/12/27 07:37:51;;;;;;;119.28;36.83;;;;;;;2.09;100.00;98902.50;5159720;27;20052;-63
2022/12/27 07:40:17;;;;;;;133.38;37.10;;;;;;;1.96;100.00;98915.03;5159782;27;20082;-63
2022/12/27 07:42:43;;;;;;;121.20;34.53;;;;;;;1.95;100.00;98916.16;5159964;27;20086;-62
2022/12/27 07:45:10;;;;;;;141.25;37.15;;;;;;;1.92;100.00;98908.66;5159962;27;20411;-61
2022/12/27 07:47:37;;;;;;;97.53;31.63;;;;;;;2.04;100.00;98902.66;5160069;27;20050;-61
2022/12/27 07:50:03;;;;;;;87.78;28.15;;;;;;;1.80;100.00;98903.88;5159696;27;20141;-63
2022/12/27 07:52:29;;;;;;;88.90;26.52;;;;;;;1.87;100.00;98884.50;5160082;27;20050;-63
2022/12/27 07:54:56;;;;;;;50.50;18.45;;;;;;;2.03;100.00;98879.41;5159948;27;20061;-63
2022/12/27 07:57:22;;;;;;;50.85;17.95;;;;;;;1.87;100.00;98871.75;5160262;27;20057;-62
2022/12/27 07:59:48;;;;;;;37.63;15.02;;;;;;;1.85;100.00;98849.66;5159559;27;20469;-65
2022/12/27 08:02:15;;;;;;;39.85;14.43;;;;;;;2.11;100.00;98832.69;5159926;27;20047;-62
2022/12/27 08:04:42;;;;;;;39.70;13.95;;;;;;;2.30;100.00;98825.06;5159639;27;20055;-63
2022/12/27 08:07:13;;;;;;;43.05;15.45;;;;;;;2.42;100.00;98832.53;5159954;27;20367;-63
2022/12/27 08:09:41;;;;;;;33.17;12.60;;;;;;;1.90;100.00;98827.09;5159375;27;20043;-63
2022/12/27 08:12:08;;;;;;;33.88;13.45;;;;;;;2.53;100.00;98805.94;5157909;27;20043;-63
2022/12/27 08:14:34;;;;;;;37.00;13.15;;;;;;;2.42;100.00;98829.03;5159590;27;20080;-63
2022/12/27 08:17:05;;;;;;;35.58;14.90;;;;;;;2.44;100.00;98821.41;5159281;27;20050;-63
2022/12/27 08:19:31;;;;;;;29.08;12.23;;;;;;;2.61;100.00;98826.00;5159365;27;20057;-65
2022/12/27 08:21:58;;;;;;;25.15;11.25;;;;;;;2.52;100.00;98853.84;5159362;27;20061;-66
2022/12/27 08:24:25;;;;;;;40.67;11.70;;;;;;;2.81;100.00;98852.41;5159801;27;20501;-66
2022/12/27 08:26:51;;;;;;;32.13;11.05;;;;;;;2.82;100.00;98860.19;5159154;27;20110;-66
2022/12/27 08:29:17;;;;;;;35.50;11.38;;;;;;;2.83;100.00;98869.91;5159292;27;20046;-67
2022/12/27 08:31:44;;;;;;;41.55;13.00;;;;;;;2.56;100.00;98879.16;5159056;27;20068;-67
2022/12/27 08:34:10;;;;;;;34.22;13.73;;;;;;;2.82;100.00;98862.91;5159519;27;20129;-67
2022/12/27 08:36:36;;;;;;;36.78;14.93;;;;;;;2.91;100.00;98871.00;5159149;27;21142;-67
2022/12/27 08:39:03;;;;;;;28.52;13.27;;;;;;;3.08;100.00;98878.31;5159028;27;20115;-67
2022/12/27 08:41:30;;;;;;;29.65;12.32;;;;;;;2.77;100.00;98895.56;5159012;27;20083;-67
2022/12/27 08:43:56;;;;;;;25.27;10.75;;;;;;;2.83;100.00;98888.88;5158833;27;20061;-67
2022/12/27 08:46:22;;;;;;;20.63;10.00;;;;;;;2.90;100.00;98888.38;5159199;27;20057;-67
2022/12/27 08:48:49;;;;;;;22.63;9.00;;;;;;;2.65;100.00;98895.41;5158911;27;20103;-66
2022/12/27 08:51:16;;;;;;;28.00;10.48;;;;;;;2.95;100.00;98898.25;5159130;27;20082;-67
2022/12/27 08:53:42;;;;;;;28.15;12.23;;;;;;;2.40;100.00;98896.16;5158863;27;20047;-66
2022/12/27 08:56:09;;;;;;;30.98;12.15;;;;;;;2.73;100.00;98897.31;5159229;27;20082;-65
2022/12/27 08:58:35;;;;;;;23.92;12.60;;;;;;;2.96;100.00;98889.78;5158831;27;20144;-65
2022/12/27 09:01:05;;;;;;;31.35;12.90;;;;;;;2.85;100.00;98904.00;5159126;27;20055;-65
2022/12/27 09:03:31;;;;;;;31.17;12.05;;;;;;;2.89;100.00;98900.31;5158752;27;20065;-66
2022/12/27 09:06:07;;;;;;;25.25;9.63;;;;;;;3.02;100.00;98903.97;5158574;27;20086;-66
2022/12/27 09:08:33;;;;;;;26.33;10.07;;;;;;;3.11;100.00;98904.75;5159032;27;20183;-66
2022/12/27 09:11:07;;;;;;;21.42;10.50;;;;;;;3.08;100.00;98896.47;5158331;27;20145;-66
2022/12/27 09:13:34;;;;;;;28.25;10.02;;;;;;;3.09;100.00;98908.91;5158940;27;20043;-65
2022/12/27 09:16:04;;;;;;;22.50;9.27;;;;;;;3.12;100.00;98916.38;5158442;27;20082;-66
2022/12/27 09:18:31;;;;;;;18.90;8.63;;;;;;;2.94;100.00;98915.63;5158799;27;20050;-66
2022/12/27 09:21:03;;;;;;;19.23;9.05;;;;;;;3.18;100.00;98913.19;5158417;27;20086;-66
2022/12/27 09:23:29;;;;;;;22.33;9.80;;;;;;;2.74;100.00;98941.41;5158443;27;20051;-66
2022/12/27 09:25:55;;;;;;;23.92;9.68;;;;;;;3.14;100.00;98920.38;5158305;27;20054;-66
2022/12/27 09:28:22;;;;;;;25.08;10.27;;;;;;;3.13;100.00;98931.50;5158288;27;20050;-66
2022/12/27 09:30:49;;;;;;;22.67;8.98;;;;;;;3.02;100.00;98934.53;5158304;27;20046;-66
2022/12/27 09:33:15;;;;;;;20.42;8.90;;;;;;;3.04;100.00;98942.38;5158381;27;20114;-66
2022/12/27 09:35:41;;;;;;;15.73;8.57;;;;;;;3.01;100.00;98941.09;5158639;27;20061;-66
2022/12/27 09:38:07;;;;;;;18.33;7.13;;;;;;;2.76;100.00;98937.25;5158310;27;20070;-66
2022/12/27 09:40:34;;;;;;;17.27;7.53;;;;;;;2.75;100.00;98926.75;5158545;27;20051;-66
2022/12/27 09:43:06;;;;;;;18.98;7.78;;;;;;;3.02;100.00;98893.13;5158315;27;20062;-66
2022/12/27 09:45:37;;;;;;;12.13;6.60;;;;;;;3.20;100.00;98905.53;5158546;27;20049;-66
2022/12/27 09:48:11;;;;;;;13.98;7.63;;;;;;;3.08;100.00;98913.53;5158175;27;20057;-67
2022/12/27 09:50:46;;;;;;;17.65;6.25;;;;;;;3.01;100.00;98916.72;5158535;27;20053;-67
2022/12/27 09:53:19;;;;;;;16.08;8.60;;;;;;;3.28;100.00;98917.47;5158434;27;20118;-66
2022/12/27 09:55:49;;;;;;;14.57;6.07;;;;;;;3.29;100.00;98938.81;5157754;27;20047;-66
2022/12/27 09:58:31;;;;;;;12.40;6.35;;;;;;;3.25;100.00;98932.44;5158110;27;20047;-66
2022/12/27 10:00:57;;;;;;;18.23;6.88;;;;;;;3.46;100.00;98929.84;5157883;27;20084;-67
2022/12/27 10:03:26;;;;;;;17.85;5.97;;;;;;;3.32;100.00;98939.28;5158190;27;20056;-67
2022/12/27 10:05:59;;;;;;;16.15;7.53;;;;;;;3.46;100.00;98945.31;5157721;27;20114;-67
2022/12/27 10:08:40;;;;;;;9.75;5.05;;;;;;;3.60;100.00;98951.34;5157634;27;20086;-66
2022/12/27 10:11:34;;;;;;;9.40;5.13;;;;;;;3.42;100.00;98952.50;5157587;27;20057;-63
2022/12/27 10:14:05;;;;;;;12.32;5.25;;;;;;;3.43;100.00;98954.09;5157491;27;20069;-64
2022/12/27 10:16:38;;;;;;;15.50;5.40;;;;;;;3.47;100.00;98952.34;5158132;27;20137;-62
2022/12/27 10:19:22;;;;;;;13.55;4.82;;;;;;;3.45;100.00;98965.41;5157843;27;20065;-63
2022/12/27 10:22:01;;;;;;;9.52;4.70;;;;;;;3.40;100.00;98970.97;5158168;27;20047;-62
2022/12/27 10:24:37;;;;;;;8.98;4.30;;;;;;;3.60;100.00;98973.03;5157480;27;20452;-63
2022/12/27 10:27:12;;;;;;;17.08;4.50;;;;;;;3.30;100.00;98974.84;5157668;27;20444;-63
2022/12/27 10:29:38;;;;;;;10.80;4.10;;;;;;;3.14;100.00;98968.34;5157653;27;20378;-64
2022/12/27 10:32:05;;;;;;;7.70;4.68;;;;;;;3.25;100.00;98970.38;5157666;27;20133;-65
2022/12/27 10:34:34;;;;;;;12.57;4.97;;;;;;;3.42;100.00;98972.25;5157915;27;20055;-65
2022/12/27 10:37:01;;;;;;;9.65;5.32;;;;;;;3.39;100.00;98983.75;5160604;27;20090;-65
2022/12/27 10:39:31;;;;;;;10.98;4.78;;;;;;;3.24;100.00;98993.19;5161519;27;20094;-65
2022/12/27 10:42:08;;;;;;;9.48;4.72;;;;;;;3.20;100.00;99003.06;5161092;27;20065;-65
2022/12/27 10:44:37;;;;;;;8.93;4.63;;;;;;;3.13;100.00;98993.81;5161117;27;20059;-65
2022/12/27 10:47:04;;;;;;;9.13;4.00;;;;;;;3.34;100.00;98993.97;5160936;27;20089;-66
2022/12/27 10:49:35;;;;;;;14.13;4.07;;;;;;;3.11;100.00;98993.34;5160786;27;20078;-66
2022/12/27 10:52:09;;;;;;;9.00;4.13;;;;;;;3.29;100.00;98981.38;5161108;27;20133;-67
2022/12/27 10:54:49;;;;;;;4.93;2.97;;;;;;;3.19;100.00;98998.75;5161028;27;20047;-66
2022/12/27 10:57:23;;;;;;;6.95;3.45;;;;;;;3.12;100.00;98998.44;5161301;27;20047;-65
2022/12/27 11:00:10;;;;;;;8.40;2.65;;;;;;;3.23;100.00;99002.44;5160910;27;20133;-65
2022/12/27 11:02:51;;;;;;;5.03;2.72;;;;;;;3.19;100.00;98997.94;5161320;27;20050;-66
2022/12/27 11:05:24;;;;;;;6.72;2.75;;;;;;;3.21;100.00;98998.44;5161096;27;20068;-65
2022/12/27 11:07:53;;;;;;;12.32;4.25;;;;;;;2.87;100.00;99000.03;5157959;27;20344;-65
2022/12/27 11:10:24;;;;;;;9.77;3.17;;;;;;;2.76;100.00;99002.22;5160685;27;20403;-65
2022/12/27 11:12:59;;;;;;;7.38;2.70;;;;;;;3.16;100.00;98996.66;5160543;27;20410;-65
2022/12/27 11:15:28;;;;;;;3.83;2.30;;;;;;;3.11;100.00;99010.38;5141942;27;20408;-65
2022/12/27 11:17:57;;;;;;;4.70;2.25;;;;;;;3.25;100.00;99013.72;5160109;27;20049;-65
2022/12/27 11:20:27;;;;;;;7.13;2.55;;;;;;;3.21;100.00;99004.66;5160805;27;20069;-65
2022/12/27 11:22:57;;;;;;;10.77;2.67;;;;;;;2.98;100.00;99004.00;5160110;27;20429;-65
2022/12/27 11:25:27;;;;;;;12.93;3.10;;;;;;;3.12;100.00;99011.19;5160243;27;20065;-66
2022/12/27 11:28:00;;;;;;;7.72;2.22;;;;;;;3.04;100.00;99002.75;5160529;27;20348;-65
2022/12/27 11:30:30;;;;;;;9.25;2.65;;;;;;;3.05;100.00;99011.66;5160399;27;20414;-66
2022/12/27 11:33:03;;;;;;;12.75;4.88;;;;;;;3.02;100.00;99015.00;5160335;27;20047;-65
2022/12/27 11:35:30;;;;;;;9.60;2.65;;;;;;;2.89;100.00;99013.25;5159899;27;20058;-65
2022/12/27 11:37:58;;;;;;;11.00;3.08;;;;;;;3.17;100.00;99003.69;5160376;27;20047;-65
2022/12/27 11:40:29;;;;;;;10.02;3.25;;;;;;;3.17;100.00;99017.25;5159570;27;20046;-66
2022/12/27 11:43:02;;;;;;;18.70;5.63;;;;;;;3.07;100.00;99020.28;5160393;27;20392;-65
2022/12/27 11:45:35;;;;;;;15.63;2.93;;;;;;;3.15;100.00;99016.75;5159795;27;20047;-66
2022/12/27 11:48:05;;;;;;;10.90;2.67;;;;;;;3.16;100.00;99029.19;5159474;27;20046;-66
2022/12/27 11:50:45;;;;;;;9.95;2.67;;;;;;;3.08;100.00;99026.47;5159766;27;20051;-66
2022/12/27 11:53:54;;;;;;;17.88;2.83;;;;;;;2.96;100.00;99021.69;5159960;27;20122;-65
2022/12/27 11:56:28;;;;;;;3.95;1.77;;;;;;;3.06;100.00;99024.06;5160318;27;20054;-64
2022/12/27 11:59:21;;;;;;;11.95;3.22;;;;;;;3.14;100.00;99027.94;5159772;27;20078;-65
2022/12/27 12:02:19;;;;;;;11.18;2.10;;;;;;;2.98;100.00;99019.47;5148869;27;20078;-65
2022/12/27 12:05:07;;;;;;;11.15;2.58;;;;;;;2.91;100.00;99032.69;5159798;27;20096;-65
2022/12/27 12:07:56;;;;;;;10.80;1.67;;;;;;;3.03;100.00;99035.53;5159573;27;20061;-65
2022/12/27 12:10:39;;;;;;;10.27;2.65;;;;;;;3.13;100.00;99047.97;5159705;27;20046;-65
2022/12/27 12:13:28;;;;;;;14.85;2.83;;;;;;;3.12;100.00;99032.84;5124809;27;20069;-65
2022/12/27 12:16:07;;;;;;;7.78;2.25;;;;;;;3.04;100.00;99050.69;5146525;27;20057;-65
2022/12/27 12:18:50;;;;;;;9.35;2.30;;;;;;;3.07;100.00;99050.06;5159721;27;20056;-65
2022/12/27 12:21:24;;;;;;;7.20;2.47;;;;;;;2.90;100.00;99052.72;5159291;27;20086;-64
2022/12/27 12:24:15;;;;;;;7.65;2.28;;;;;;;3.03;100.00;99058.03;5159269;27;20103;-64
2022/12/27 12:26:56;;;;;;;13.63;3.17;;;;;;;2.99;100.00;99062.47;5156799;27;20051;-64
2022/12/27 12:29:54;;;;;;;9.80;1.65;;;;;;;2.94;100.00;99064.56;5159042;27;20079;-65
2022/12/27 12:32:28;;;;;;;10.88;4.45;;;;;;;2.58;100.00;99073.69;5159457;27;20077;-65
2022/12/27 12:35:13;;;;;;;17.20;2.33;;;;;;;2.80;100.00;99070.91;5158905;27;20050;-65
2022/12/27 12:37:57;;;;;;;10.90;2.05;;;;;;;2.65;100.00;99073.25;5158800;27;20046;-66
2022/12/27 12:40:36;;;;;;;9.77;2.55;;;;;;;2.71;100.00;99075.50;5158873;27;20051;-65
2022/12/27 12:43:17;;;;;;;10.63;3.83;;;;;;;2.81;100.00;99072.47;5158563;27;20046;-65
2022/12/27 12:46:07;;;;;;;12.98;2.47;;;;;;;2.61;100.00;99075.78;5159110;27;20137;-65
2022/12/27 12:49:04;;;;;;;13.20;2.30;;;;;;;2.76;100.00;99069.13;5159121;27;20057;-65
2022/12/27 12:51:55;;;;;;;12.30;2.58;;;;;;;2.82;100.00;99078.69;5158775;27;20061;-65
2022/12/27 12:55:04;;;;;;;30.50;13.73;;;;;;;2.81;100.00;99080.59;5159147;27;20053;-65
2022/12/27 12:57:45;;;;;;;16.05;2.83;;;;;;;2.84;100.00;99073.78;5158451;27;20096;-65
2022/12/27 13:00:26;;;;;;;9.70;2.58;;;;;;;2.92;100.00;99080.31;5158585;27;20080;-65
2022/12/27 13:03:32;;;;;;;7.85;3.53;;;;;;;2.92;100.00;99075.69;5158521;27;20134;-65
2022/12/27 13:06:10;;;;;;;12.68;3.00;;;;;;;2.74;100.00;99069.44;5158338;27;20073;-65
2022/12/27 13:08:46;;;;;;;15.93;4.00;;;;;;;2.87;100.00;99089.38;5159022;27;20381;-65
2022/12/27 13:11:50;;;;;;;8.07;2.85;;;;;;;2.77;100.00;99092.38;5158361;27;20046;-65
2022/12/27 13:14:31;;;;;;;12.57;2.20;;;;;;;2.82;100.00;99111.19;5158367;27;20134;-64
2022/12/27 13:17:06;;;;;;;8.45;2.58;;;;;;;2.77;100.00;99114.03;5158567;27;20315;-65
2022/12/27 13:20:00;;;;;;;16.13;3.97;;;;;;;2.81;100.00;99128.53;5158731;27;20054;-65
2022/12/27 13:22:44;;;;;;;21.00;2.93;;;;;;;2.84;100.00;99138.75;5153283;27;20146;-65
2022/12/27 13:25:28;;;;;;;7.18;2.20;;;;;;;2.40;100.00;99137.78;5158425;27;20050;-65